Westmorland, California
Current Conditions -  °F | °C
As of 2:53 PM on Saturday 25 Oct 2014 (Local Time) from KIPL Reporting Station
Clear Clear  
Wind Chill: 95°   Ceiling: Unl
Heat Index: 95°   Visibility: 10mi
Dew Point: 47°   Wind: 0mph
Humidity: 19%   Direction: NA
Pressure: 29.87"   Gusts: NA
Location:  33.04°N, 115.62°W
Report Text: KIPL 252153Z AUTO 00000KT 10SM CLR 35/08 A2987 RMK AO2 SLP115 T03500083
Loading
Personal Weather Stations






























Interactive Weather Map
Tropical Storm Tracking
New forecast layout! Learn more

10-Day Weather Forecast

Advertisements
Track Severe Weather on mobile